sensor_id;sensor_type;location;lat;lon;timestamp;temperature;humidity
18207;DHT22;9229;52.354;20.886;2022-12-07T00:02:42;1.20;99.90
18207;DHT22;9229;52.354;20.886;2022-12-07T00:07:45;1.20;99.90
18207;DHT22;9229;52.354;20.886;2022-12-07T00:12:49;1.20;99.90
18207;DHT22;9229;52.354;20.886;2022-12-07T00:17:51;1.30;99.90
18207;DHT22;9229;52.354;20.886;2022-12-07T00:22:54;1.30;99.90
18207;DHT22;9229;52.354;20.886;2022-12-07T00:27:57;1.20;99.90
18207;DHT22;9229;52.354;20.886;2022-12-07T00:32:59;1.30;99.90
18207;DHT22;9229;52.354;20.886;2022-12-07T00:38:01;1.30;99.90
18207;DHT22;9229;52.354;20.886;2022-12-07T00:43:05;1.30;99.90
18207;DHT22;9229;52.354;20.886;2022-12-07T00:48:07;1.30;99.90
18207;DHT22;9229;52.354;20.886;2022-12-07T00:53:09;1.30;99.90
18207;DHT22;9229;52.354;20.886;2022-12-07T00:58:13;1.30;99.90
18207;DHT22;9229;52.354;20.886;2022-12-07T01:03:16;1.30;99.90
18207;DHT22;9229;52.354;20.886;2022-12-07T01:08:19;1.30;99.90
18207;DHT22;9229;52.354;20.886;2022-12-07T01:13:23;1.40;99.90
18207;DHT22;9229;52.354;20.886;2022-12-07T01:18:25;1.40;99.90
18207;DHT22;9229;52.354;20.886;2022-12-07T01:23:28;1.40;99.90
18207;DHT22;9229;52.354;20.886;2022-12-07T01:28:32;1.40;99.90
18207;DHT22;9229;52.354;20.886;2022-12-07T01:33:36;1.50;99.90
18207;DHT22;9229;52.354;20.886;2022-12-07T01:38:38;1.50;99.90
18207;DHT22;9229;52.354;20.886;2022-12-07T01:44:11;1.50;99.90
18207;DHT22;9229;52.354;20.886;2022-12-07T01:49:19;1.50;99.90
18207;DHT22;9229;52.354;20.886;2022-12-07T01:54:24;1.60;99.90
18207;DHT22;9229;52.354;20.886;2022-12-07T01:59:28;1.50;99.90
18207;DHT22;9229;52.354;20.886;2022-12-07T02:04:31;1.60;99.90
18207;DHT22;9229;52.354;20.886;2022-12-07T02:09:33;1.50;99.90
18207;DHT22;9229;52.354;20.886;2022-12-07T02:14:36;1.60;99.90
18207;DHT22;9229;52.354;20.886;2022-12-07T02:20:03;1.60;99.90
18207;DHT22;9229;52.354;20.886;2022-12-07T02:25:19;1.60;99.90
18207;DHT22;9229;52.354;20.886;2022-12-07T02:30:29;1.60;99.90
18207;DHT22;9229;52.354;20.886;2022-12-07T02:35:35;1.60;99.90
18207;DHT22;9229;52.354;20.886;2022-12-07T02:40:43;1.60;99.90
18207;DHT22;9229;52.354;20.886;2022-12-07T02:45:52;1.70;99.90
18207;DHT22;9229;52.354;20.886;2022-12-07T02:50:55;1.70;99.90
18207;DHT22;9229;52.354;20.886;2022-12-07T02:55:58;1.70;99.90
18207;DHT22;9229;52.354;20.886;2022-12-07T03:01:10;1.70;99.90
18207;DHT22;9229;52.354;20.886;2022-12-07T03:06:21;1.70;99.90
18207;DHT22;9229;52.354;20.886;2022-12-07T03:11:28;1.70;99.90
18207;DHT22;9229;52.354;20.886;2022-12-07T03:16:35;1.70;99.90
18207;DHT22;9229;52.354;20.886;2022-12-07T03:21:44;1.70;99.90
18207;DHT22;9229;52.354;20.886;2022-12-07T03:26:49;1.70;99.90
18207;DHT22;9229;52.354;20.886;2022-12-07T03:31:58;1.70;99.90
18207;DHT22;9229;52.354;20.886;2022-12-07T03:37:04;1.80;99.90
18207;DHT22;9229;52.354;20.886;2022-12-07T03:42:08;1.80;99.90
18207;DHT22;9229;52.354;20.886;2022-12-07T03:47:16;1.70;99.90
18207;DHT22;9229;52.354;20.886;2022-12-07T03:52:26;1.80;99.90
18207;DHT22;9229;52.354;20.886;2022-12-07T03:57:31;1.70;99.90
18207;DHT22;9229;52.354;20.886;2022-12-07T04:02:37;1.80;99.90
18207;DHT22;9229;52.354;20.886;2022-12-07T04:07:39;1.80;99.90
18207;DHT22;9229;52.354;20.886;2022-12-07T04:12:42;1.80;99.90
18207;DHT22;9229;52.354;20.886;2022-12-07T04:17:45;1.80;99.90
18207;DHT22;9229;52.354;20.886;2022-12-07T04:22:48;1.80;99.90
18207;DHT22;9229;52.354;20.886;2022-12-07T04:27:50;1.80;99.90
18207;DHT22;9229;52.354;20.886;2022-12-07T04:32:53;1.80;99.90
18207;DHT22;9229;52.354;20.886;2022-12-07T04:37:55;1.80;99.90
18207;DHT22;9229;52.354;20.886;2022-12-07T04:42:58;1.70;99.90
18207;DHT22;9229;52.354;20.886;2022-12-07T04:48:03;1.70;99.90
18207;DHT22;9229;52.354;20.886;2022-12-07T04:53:05;1.70;99.90
18207;DHT22;9229;52.354;20.886;2022-12-07T04:58:07;1.70;99.90
18207;DHT22;9229;52.354;20.886;2022-12-07T05:03:11;1.70;99.90
18207;DHT22;9229;52.354;20.886;2022-12-07T05:08:13;1.70;99.90
18207;DHT22;9229;52.354;20.886;2022-12-07T05:13:15;1.70;99.90
18207;DHT22;9229;52.354;20.886;2022-12-07T05:18:19;1.60;99.90
18207;DHT22;9229;52.354;20.886;2022-12-07T05:23:21;1.70;99.90
18207;DHT22;9229;52.354;20.886;2022-12-07T05:28:24;1.70;99.90
18207;DHT22;9229;52.354;20.886;2022-12-07T05:33:27;1.60;99.90
18207;DHT22;9229;52.354;20.886;2022-12-07T05:38:29;1.60;99.90
18207;DHT22;9229;52.354;20.886;2022-12-07T05:43:32;1.50;99.90
18207;DHT22;9229;52.354;20.886;2022-12-07T05:48:36;1.60;99.90
18207;DHT22;9229;52.354;20.886;2022-12-07T05:53:38;1.60;99.90
18207;DHT22;9229;52.354;20.886;2022-12-07T05:58:40;1.50;99.90
18207;DHT22;9229;52.354;20.886;2022-12-07T06:04:01;1.50;99.90
18207;DHT22;9229;52.354;20.886;2022-12-07T06:09:03;1.40;99.90
18207;DHT22;9229;52.354;20.886;2022-12-07T06:14:05;1.40;99.90
18207;DHT22;9229;52.354;20.886;2022-12-07T06:19:09;1.30;99.90
18207;DHT22;9229;52.354;20.886;2022-12-07T06:24:13;1.30;99.90
18207;DHT22;9229;52.354;20.886;2022-12-07T06:29:18;1.20;99.90
18207;DHT22;9229;52.354;20.886;2022-12-07T06:34:22;1.20;99.90
18207;DHT22;9229;52.354;20.886;2022-12-07T06:39:26;1.10;99.90
18207;DHT22;9229;52.354;20.886;2022-12-07T06:44:29;1.10;99.90
18207;DHT22;9229;52.354;20.886;2022-12-07T06:49:33;1.10;99.90
18207;DHT22;9229;52.354;20.886;2022-12-07T06:54:35;1.10;99.90
18207;DHT22;9229;52.354;20.886;2022-12-07T06:59:37;1.10;99.90
18207;DHT22;9229;52.354;20.886;2022-12-07T07:04:41;1.10;99.90
18207;DHT22;9229;52.354;20.886;2022-12-07T07:09:43;1.10;99.90
18207;DHT22;9229;52.354;20.886;2022-12-07T07:14:45;1.10;99.90
18207;DHT22;9229;52.354;20.886;2022-12-07T07:19:49;1.10;99.90
18207;DHT22;9229;52.354;20.886;2022-12-07T07:24:52;1.10;99.90
18207;DHT22;9229;52.354;20.886;2022-12-07T07:29:54;1.30;99.90
18207;DHT22;9229;52.354;20.886;2022-12-07T07:34:57;1.20;99.90
18207;DHT22;9229;52.354;20.886;2022-12-07T07:39:59;1.20;99.90
18207;DHT22;9229;52.354;20.886;2022-12-07T07:45:01;1.20;99.90
18207;DHT22;9229;52.354;20.886;2022-12-07T07:50:21;1.20;99.90
18207;DHT22;9229;52.354;20.886;2022-12-07T07:55:23;1.30;99.90
18207;DHT22;9229;52.354;20.886;2022-12-07T08:00:26;1.30;99.90
18207;DHT22;9229;52.354;20.886;2022-12-07T08:05:29;1.20;99.90
18207;DHT22;9229;52.354;20.886;2022-12-07T08:10:31;1.30;99.90
18207;DHT22;9229;52.354;20.886;2022-12-07T08:15:37;1.30;99.90
18207;DHT22;9229;52.354;20.886;2022-12-07T08:20:42;1.40;99.90
18207;DHT22;9229;52.354;20.886;2022-12-07T08:25:44;1.40;99.90
18207;DHT22;9229;52.354;20.886;2022-12-07T08:30:46;1.60;99.90
18207;DHT22;9229;52.354;20.886;2022-12-07T08:35:50;1.60;99.90
18207;DHT22;9229;52.354;20.886;2022-12-07T08:40:54;1.60;99.90
18207;DHT22;9229;52.354;20.886;2022-12-07T08:46:03;1.70;99.90
18207;DHT22;9229;52.354;20.886;2022-12-07T08:51:11;1.80;99.90
18207;DHT22;9229;52.354;20.886;2022-12-07T08:56:13;1.90;99.90
18207;DHT22;9229;52.354;20.886;2022-12-07T09:01:16;2.00;99.90
18207;DHT22;9229;52.354;20.886;2022-12-07T09:06:20;2.20;99.90
18207;DHT22;9229;52.354;20.886;2022-12-07T09:11:22;2.30;99.90
18207;DHT22;9229;52.354;20.886;2022-12-07T09:16:24;2.40;99.90
18207;DHT22;9229;52.354;20.886;2022-12-07T09:21:27;2.50;99.90
18207;DHT22;9229;52.354;20.886;2022-12-07T09:26:30;2.60;99.90
18207;DHT22;9229;52.354;20.886;2022-12-07T09:31:32;2.60;99.90
18207;DHT22;9229;52.354;20.886;2022-12-07T09:36:35;2.70;99.90
18207;DHT22;9229;52.354;20.886;2022-12-07T09:41:38;2.80;99.90
18207;DHT22;9229;52.354;20.886;2022-12-07T09:46:43;2.90;99.90
18207;DHT22;9229;52.354;20.886;2022-12-07T09:52:00;3.00;99.90
18207;DHT22;9229;52.354;20.886;2022-12-07T09:57:03;3.10;99.90
18207;DHT22;9229;52.354;20.886;2022-12-07T10:02:24;3.10;99.90
18207;DHT22;9229;52.354;20.886;2022-12-07T10:07:29;3.20;99.90
18207;DHT22;9229;52.354;20.886;2022-12-07T10:12:55;3.20;99.90
18207;DHT22;9229;52.354;20.886;2022-12-07T10:17:58;3.20;99.90
18207;DHT22;9229;52.354;20.886;2022-12-07T10:23:04;3.20;99.90
18207;DHT22;9229;52.354;20.886;2022-12-07T10:28:14;3.30;99.90
18207;DHT22;9229;52.354;20.886;2022-12-07T10:33:34;3.30;99.90
18207;DHT22;9229;52.354;20.886;2022-12-07T10:38:45;3.30;99.90
18207;DHT22;9229;52.354;20.886;2022-12-07T10:43:50;3.30;99.90
18207;DHT22;9229;52.354;20.886;2022-12-07T10:49:01;3.40;99.90
18207;DHT22;9229;52.354;20.886;2022-12-07T10:54:12;3.50;99.90
18207;DHT22;9229;52.354;20.886;2022-12-07T10:59:41;3.60;99.90
18207;DHT22;9229;52.354;20.886;2022-12-07T11:04:54;3.70;99.90
18207;DHT22;9229;52.354;20.886;2022-12-07T11:10:05;3.70;99.90
18207;DHT22;9229;52.354;20.886;2022-12-07T11:15:17;3.70;99.90
18207;DHT22;9229;52.354;20.886;2022-12-07T11:20:29;3.70;99.90
18207;DHT22;9229;52.354;20.886;2022-12-07T11:25:42;3.70;99.90
18207;DHT22;9229;52.354;20.886;2022-12-07T11:30:56;3.60;99.90
18207;DHT22;9229;52.354;20.886;2022-12-07T11:36:07;3.60;99.90
18207;DHT22;9229;52.354;20.886;2022-12-07T11:41:22;3.60;99.90
18207;DHT22;9229;52.354;20.886;2022-12-07T11:46:27;3.60;99.90
18207;DHT22;9229;52.354;20.886;2022-12-07T11:51:34;3.70;99.90
18207;DHT22;9229;52.354;20.886;2022-12-07T11:56:40;3.80;99.90
18207;DHT22;9229;52.354;20.886;2022-12-07T12:01:50;3.90;99.90
18207;DHT22;9229;52.354;20.886;2022-12-07T12:06:55;4.00;99.90
18207;DHT22;9229;52.354;20.886;2022-12-07T12:12:31;4.30;99.90
18207;DHT22;9229;52.354;20.886;2022-12-07T12:18:05;4.30;99.90
18207;DHT22;9229;52.354;20.886;2022-12-07T12:23:12;4.30;99.90
18207;DHT22;9229;52.354;20.886;2022-12-07T12:28:23;4.00;99.90
18207;DHT22;9229;52.354;20.886;2022-12-07T12:33:28;3.90;99.90
18207;DHT22;9229;52.354;20.886;2022-12-07T12:38:33;3.70;99.90
18207;DHT22;9229;52.354;20.886;2022-12-07T12:43:58;3.70;99.90
18207;DHT22;9229;52.354;20.886;2022-12-07T12:49:30;3.70;99.90
18207;DHT22;9229;52.354;20.886;2022-12-07T12:54:35;3.60;99.90
18207;DHT22;9229;52.354;20.886;2022-12-07T12:59:41;3.50;99.90
18207;DHT22;9229;52.354;20.886;2022-12-07T13:05:02;3.50;99.90
18207;DHT22;9229;52.354;20.886;2022-12-07T13:10:31;3.50;99.90
18207;DHT22;9229;52.354;20.886;2022-12-07T13:15:38;3.50;99.90
18207;DHT22;9229;52.354;20.886;2022-12-07T13:20:49;3.50;99.90
18207;DHT22;9229;52.354;20.886;2022-12-07T13:26:04;3.40;99.90
18207;DHT22;9229;52.354;20.886;2022-12-07T13:31:31;3.30;99.90
18207;DHT22;9229;52.354;20.886;2022-12-07T13:36:38;3.30;99.90
18207;DHT22;9229;52.354;20.886;2022-12-07T13:41:42;3.20;99.90
18207;DHT22;9229;52.354;20.886;2022-12-07T13:46:51;3.10;99.90
18207;DHT22;9229;52.354;20.886;2022-12-07T13:52:13;3.00;99.90
18207;DHT22;9229;52.354;20.886;2022-12-07T13:57:15;2.90;99.90
18207;DHT22;9229;52.354;20.886;2022-12-07T14:02:22;2.90;99.90
18207;DHT22;9229;52.354;20.886;2022-12-07T14:07:28;2.80;99.90
18207;DHT22;9229;52.354;20.886;2022-12-07T14:12:32;2.70;99.90
18207;DHT22;9229;52.354;20.886;2022-12-07T14:17:50;2.60;99.90
18207;DHT22;9229;52.354;20.886;2022-12-07T14:22:55;2.60;99.90
18207;DHT22;9229;52.354;20.886;2022-12-07T14:27:58;2.50;99.90
18207;DHT22;9229;52.354;20.886;2022-12-07T14:33:04;2.40;99.90
18207;DHT22;9229;52.354;20.886;2022-12-07T14:38:07;2.30;99.90
18207;DHT22;9229;52.354;20.886;2022-12-07T14:43:13;2.10;99.90
18207;DHT22;9229;52.354;20.886;2022-12-07T14:48:18;2.00;99.90
18207;DHT22;9229;52.354;20.886;2022-12-07T14:53:26;2.00;99.90
18207;DHT22;9229;52.354;20.886;2022-12-07T14:58:31;2.00;99.90
18207;DHT22;9229;52.354;20.886;2022-12-07T15:03:35;1.90;99.90
18207;DHT22;9229;52.354;20.886;2022-12-07T15:08:38;1.80;99.90
18207;DHT22;9229;52.354;20.886;2022-12-07T15:13:43;1.60;99.90
18207;DHT22;9229;52.354;20.886;2022-12-07T15:19:04;1.60;99.90
18207;DHT22;9229;52.354;20.886;2022-12-07T15:24:09;1.50;99.90
18207;DHT22;9229;52.354;20.886;2022-12-07T15:29:14;1.50;99.90
18207;DHT22;9229;52.354;20.886;2022-12-07T15:34:19;1.50;99.90
18207;DHT22;9229;52.354;20.886;2022-12-07T15:39:21;1.50;99.90
18207;DHT22;9229;52.354;20.886;2022-12-07T15:44:23;1.50;99.90
18207;DHT22;9229;52.354;20.886;2022-12-07T15:49:43;1.50;99.90
18207;DHT22;9229;52.354;20.886;2022-12-07T15:54:52;1.50;99.90
18207;DHT22;9229;52.354;20.886;2022-12-07T15:59:54;1.50;99.90
18207;DHT22;9229;52.354;20.886;2022-12-07T16:04:58;1.60;99.90
18207;DHT22;9229;52.354;20.886;2022-12-07T16:10:00;1.60;99.90
18207;DHT22;9229;52.354;20.886;2022-12-07T16:15:03;1.70;99.90
18207;DHT22;9229;52.354;20.886;2022-12-07T16:20:10;1.70;99.90
18207;DHT22;9229;52.354;20.886;2022-12-07T16:25:12;1.80;99.90
18207;DHT22;9229;52.354;20.886;2022-12-07T16:30:15;1.80;99.90
18207;DHT22;9229;52.354;20.886;2022-12-07T16:35:19;1.70;99.90
18207;DHT22;9229;52.354;20.886;2022-12-07T16:40:21;1.70;99.90
18207;DHT22;9229;52.354;20.886;2022-12-07T16:45:23;1.70;99.90
18207;DHT22;9229;52.354;20.886;2022-12-07T16:50:26;1.80;99.90
18207;DHT22;9229;52.354;20.886;2022-12-07T16:55:28;1.80;99.90
18207;DHT22;9229;52.354;20.886;2022-12-07T17:00:31;1.90;99.90
18207;DHT22;9229;52.354;20.886;2022-12-07T17:05:37;2.00;99.90
18207;DHT22;9229;52.354;20.886;2022-12-07T17:10:41;2.00;99.90
18207;DHT22;9229;52.354;20.886;2022-12-07T17:15:43;2.00;99.90
18207;DHT22;9229;52.354;20.886;2022-12-07T17:20:47;2.10;99.90
18207;DHT22;9229;52.354;20.886;2022-12-07T17:25:49;2.10;99.90
18207;DHT22;9229;52.354;20.886;2022-12-07T17:30:51;2.10;99.90
18207;DHT22;9229;52.354;20.886;2022-12-07T17:35:55;2.10;99.90
18207;DHT22;9229;52.354;20.886;2022-12-07T17:40:57;2.20;99.90
18207;DHT22;9229;52.354;20.886;2022-12-07T17:46:05;2.20;99.90
18207;DHT22;9229;52.354;20.886;2022-12-07T17:51:09;2.20;99.90
18207;DHT22;9229;52.354;20.886;2022-12-07T17:56:29;2.10;99.90
18207;DHT22;9229;52.354;20.886;2022-12-07T18:01:31;2.00;99.90
18207;DHT22;9229;52.354;20.886;2022-12-07T18:06:35;2.00;99.90
18207;DHT22;9229;52.354;20.886;2022-12-07T18:11:39;2.00;99.90
18207;DHT22;9229;52.354;20.886;2022-12-07T18:16:43;2.00;99.90
18207;DHT22;9229;52.354;20.886;2022-12-07T18:21:48;2.00;99.90
18207;DHT22;9229;52.354;20.886;2022-12-07T18:26:51;2.00;99.90
18207;DHT22;9229;52.354;20.886;2022-12-07T18:31:55;2.10;99.90
18207;DHT22;9229;52.354;20.886;2022-12-07T18:37:00;2.00;99.90
18207;DHT22;9229;52.354;20.886;2022-12-07T18:42:04;2.00;99.90
18207;DHT22;9229;52.354;20.886;2022-12-07T18:47:08;1.90;99.90
18207;DHT22;9229;52.354;20.886;2022-12-07T18:52:13;1.90;99.90
18207;DHT22;9229;52.354;20.886;2022-12-07T18:57:17;1.90;99.90
18207;DHT22;9229;52.354;20.886;2022-12-07T19:02:22;1.90;99.90
18207;DHT22;9229;52.354;20.886;2022-12-07T19:07:27;1.90;99.90
18207;DHT22;9229;52.354;20.886;2022-12-07T19:12:30;1.80;99.90
18207;DHT22;9229;52.354;20.886;2022-12-07T19:17:35;1.80;99.90
18207;DHT22;9229;52.354;20.886;2022-12-07T19:22:40;1.80;99.90
18207;DHT22;9229;52.354;20.886;2022-12-07T19:27:43;1.80;99.90
18207;DHT22;9229;52.354;20.886;2022-12-07T19:32:47;1.80;99.90
18207;DHT22;9229;52.354;20.886;2022-12-07T19:37:51;1.80;99.90
18207;DHT22;9229;52.354;20.886;2022-12-07T19:42:53;1.80;99.90
18207;DHT22;9229;52.354;20.886;2022-12-07T19:47:55;1.70;99.90
18207;DHT22;9229;52.354;20.886;2022-12-07T19:52:58;1.60;99.90
18207;DHT22;9229;52.354;20.886;2022-12-07T19:58:00;1.60;99.90
18207;DHT22;9229;52.354;20.886;2022-12-07T20:03:02;1.60;99.90
18207;DHT22;9229;52.354;20.886;2022-12-07T20:08:06;1.60;99.90
18207;DHT22;9229;52.354;20.886;2022-12-07T20:13:08;1.60;99.90
18207;DHT22;9229;52.354;20.886;2022-12-07T20:18:28;1.60;99.90
18207;DHT22;9229;52.354;20.886;2022-12-07T20:23:32;1.50;99.90
18207;DHT22;9229;52.354;20.886;2022-12-07T20:28:34;1.40;99.90
18207;DHT22;9229;52.354;20.886;2022-12-07T20:33:36;1.30;99.90
18207;DHT22;9229;52.354;20.886;2022-12-07T20:38:39;1.30;99.90
18207;DHT22;9229;52.354;20.886;2022-12-07T20:43:43;1.20;99.90
18207;DHT22;9229;52.354;20.886;2022-12-07T20:48:45;1.10;99.90
18207;DHT22;9229;52.354;20.886;2022-12-07T20:53:49;1.20;99.90
18207;DHT22;9229;52.354;20.886;2022-12-07T20:58:51;1.10;99.90
18207;DHT22;9229;52.354;20.886;2022-12-07T21:03:53;1.10;99.90
18207;DHT22;9229;52.354;20.886;2022-12-07T21:08:58;1.10;99.90
18207;DHT22;9229;52.354;20.886;2022-12-07T21:14:01;1.00;99.90
18207;DHT22;9229;52.354;20.886;2022-12-07T21:19:03;1.00;99.90
18207;DHT22;9229;52.354;20.886;2022-12-07T21:24:08;0.90;99.90
18207;DHT22;9229;52.354;20.886;2022-12-07T21:29:11;0.80;99.90
18207;DHT22;9229;52.354;20.886;2022-12-07T21:34:14;0.80;99.90
18207;DHT22;9229;52.354;20.886;2022-12-07T21:39:18;0.70;99.90
18207;DHT22;9229;52.354;20.886;2022-12-07T21:44:20;0.60;99.90
18207;DHT22;9229;52.354;20.886;2022-12-07T21:49:22;0.60;99.90
18207;DHT22;9229;52.354;20.886;2022-12-07T21:54:26;0.50;99.90
18207;DHT22;9229;52.354;20.886;2022-12-07T21:59:28;0.40;99.90
18207;DHT22;9229;52.354;20.886;2022-12-07T22:04:30;0.40;99.90
18207;DHT22;9229;52.354;20.886;2022-12-07T22:09:34;0.40;99.90
18207;DHT22;9229;52.354;20.886;2022-12-07T22:14:37;0.50;99.90
18207;DHT22;9229;52.354;20.886;2022-12-07T22:19:56;0.30;99.90
18207;DHT22;9229;52.354;20.886;2022-12-07T22:25:00;0.30;99.90
18207;DHT22;9229;52.354;20.886;2022-12-07T22:30:02;0.30;99.90
18207;DHT22;9229;52.354;20.886;2022-12-07T22:35:05;0.20;99.90
18207;DHT22;9229;52.354;20.886;2022-12-07T22:40:10;0.20;99.90
18207;DHT22;9229;52.354;20.886;2022-12-07T22:45:12;0.30;99.90
18207;DHT22;9229;52.354;20.886;2022-12-07T22:50:15;0.30;99.90
18207;DHT22;9229;52.354;20.886;2022-12-07T22:55:19;0.30;99.90
18207;DHT22;9229;52.354;20.886;2022-12-07T23:00:21;0.20;99.90
18207;DHT22;9229;52.354;20.886;2022-12-07T23:05:23;0.30;99.90
18207;DHT22;9229;52.354;20.886;2022-12-07T23:10:26;0.30;99.90
18207;DHT22;9229;52.354;20.886;2022-12-07T23:15:28;0.30;99.90
18207;DHT22;9229;52.354;20.886;2022-12-07T23:20:30;0.30;99.90
18207;DHT22;9229;52.354;20.886;2022-12-07T23:25:34;0.30;99.90
18207;DHT22;9229;52.354;20.886;2022-12-07T23:30:36;0.40;99.90
18207;DHT22;9229;52.354;20.886;2022-12-07T23:35:38;0.50;99.90
18207;DHT22;9229;52.354;20.886;2022-12-07T23:40:41;0.50;99.90
18207;DHT22;9229;52.354;20.886;2022-12-07T23:45:44;0.50;99.90
18207;DHT22;9229;52.354;20.886;2022-12-07T23:50:47;0.50;99.90
18207;DHT22;9229;52.354;20.886;2022-12-07T23:55:51;0.60;99.90
